sensor_id;sensor_type;location;lat;lon;timestamp;temperature;humidity
16198;DHT22;8206;51.440;6.914;2023-04-03T00:01:26;0.70;99.90
16198;DHT22;8206;51.440;6.914;2023-04-03T00:03:53;0.70;99.90
16198;DHT22;8206;51.440;6.914;2023-04-03T00:06:22;0.70;99.90
16198;DHT22;8206;51.440;6.914;2023-04-03T00:08:49;0.70;99.90
16198;DHT22;8206;51.440;6.914;2023-04-03T00:11:16;0.70;99.90
16198;DHT22;8206;51.440;6.914;2023-04-03T00:13:43;0.70;99.90
16198;DHT22;8206;51.440;6.914;2023-04-03T00:16:10;0.70;99.90
16198;DHT22;8206;51.440;6.914;2023-04-03T00:18:39;0.70;99.90
16198;DHT22;8206;51.440;6.914;2023-04-03T00:21:06;0.60;99.90
16198;DHT22;8206;51.440;6.914;2023-04-03T00:23:35;0.60;99.90
16198;DHT22;8206;51.440;6.914;2023-04-03T00:26:01;0.60;99.90
16198;DHT22;8206;51.440;6.914;2023-04-03T00:28:28;0.60;99.90
16198;DHT22;8206;51.440;6.914;2023-04-03T00:30:55;0.50;99.90
16198;DHT22;8206;51.440;6.914;2023-04-03T00:33:22;0.50;99.90
16198;DHT22;8206;51.440;6.914;2023-04-03T00:35:50;0.50;99.90
16198;DHT22;8206;51.440;6.914;2023-04-03T00:38:17;0.50;99.90
16198;DHT22;8206;51.440;6.914;2023-04-03T00:40:47;0.40;99.90
16198;DHT22;8206;51.440;6.914;2023-04-03T00:43:20;0.40;99.90
16198;DHT22;8206;51.440;6.914;2023-04-03T00:45:48;0.40;99.90
16198;DHT22;8206;51.440;6.914;2023-04-03T00:48:18;0.40;99.90
16198;DHT22;8206;51.440;6.914;2023-04-03T00:50:46;0.40;99.90
16198;DHT22;8206;51.440;6.914;2023-04-03T00:53:17;0.40;99.90
16198;DHT22;8206;51.440;6.914;2023-04-03T00:55:46;0.40;99.90
16198;DHT22;8206;51.440;6.914;2023-04-03T00:58:14;0.40;99.90
16198;DHT22;8206;51.440;6.914;2023-04-03T01:00:46;0.30;99.90
16198;DHT22;8206;51.440;6.914;2023-04-03T01:03:14;0.30;99.90
16198;DHT22;8206;51.440;6.914;2023-04-03T01:05:41;0.20;99.90
16198;DHT22;8206;51.440;6.914;2023-04-03T01:08:07;0.20;99.90
16198;DHT22;8206;51.440;6.914;2023-04-03T01:10:34;0.30;99.90
16198;DHT22;8206;51.440;6.914;2023-04-03T01:13:18;0.20;99.90
16198;DHT22;8206;51.440;6.914;2023-04-03T01:15:45;0.20;99.90
16198;DHT22;8206;51.440;6.914;2023-04-03T01:18:12;0.20;99.90
16198;DHT22;8206;51.440;6.914;2023-04-03T01:21:26;0.10;99.90
16198;DHT22;8206;51.440;6.914;2023-04-03T01:24:04;0.20;99.90
16198;DHT22;8206;51.440;6.914;2023-04-03T01:26:36;0.20;99.90
16198;DHT22;8206;51.440;6.914;2023-04-03T01:29:04;0.20;99.90
16198;DHT22;8206;51.440;6.914;2023-04-03T01:31:42;0.30;99.90
16198;DHT22;8206;51.440;6.914;2023-04-03T01:34:09;0.30;99.90
16198;DHT22;8206;51.440;6.914;2023-04-03T01:36:36;0.40;99.90
16198;DHT22;8206;51.440;6.914;2023-04-03T01:39:03;0.40;99.90
16198;DHT22;8206;51.440;6.914;2023-04-03T01:41:30;0.50;99.90
16198;DHT22;8206;51.440;6.914;2023-04-03T01:43:56;0.50;99.90
16198;DHT22;8206;51.440;6.914;2023-04-03T01:46:23;0.60;99.90
16198;DHT22;8206;51.440;6.914;2023-04-03T01:48:51;0.70;99.90
16198;DHT22;8206;51.440;6.914;2023-04-03T01:51:18;0.80;99.90
16198;DHT22;8206;51.440;6.914;2023-04-03T01:53:44;0.80;99.90
16198;DHT22;8206;51.440;6.914;2023-04-03T01:56:11;0.80;99.90
16198;DHT22;8206;51.440;6.914;2023-04-03T01:58:38;0.80;99.90
16198;DHT22;8206;51.440;6.914;2023-04-03T02:01:05;0.80;99.90
16198;DHT22;8206;51.440;6.914;2023-04-03T02:03:32;0.80;99.90
16198;DHT22;8206;51.440;6.914;2023-04-03T02:06:00;0.80;99.90
16198;DHT22;8206;51.440;6.914;2023-04-03T02:08:26;0.90;99.90
16198;DHT22;8206;51.440;6.914;2023-04-03T02:10:53;0.90;99.90
16198;DHT22;8206;51.440;6.914;2023-04-03T02:13:20;0.90;99.90
16198;DHT22;8206;51.440;6.914;2023-04-03T02:15:47;0.90;99.90
16198;DHT22;8206;51.440;6.914;2023-04-03T02:18:14;0.80;99.90
16198;DHT22;8206;51.440;6.914;2023-04-03T02:20:41;0.70;99.90
16198;DHT22;8206;51.440;6.914;2023-04-03T02:23:09;0.70;99.90
16198;DHT22;8206;51.440;6.914;2023-04-03T02:25:36;0.70;99.90
16198;DHT22;8206;51.440;6.914;2023-04-03T02:28:02;0.70;99.90
16198;DHT22;8206;51.440;6.914;2023-04-03T02:30:29;0.60;99.90
16198;DHT22;8206;51.440;6.914;2023-04-03T02:32:56;0.70;99.90
16198;DHT22;8206;51.440;6.914;2023-04-03T02:35:22;0.70;99.90
16198;DHT22;8206;51.440;6.914;2023-04-03T02:37:49;0.70;99.90
16198;DHT22;8206;51.440;6.914;2023-04-03T02:40:17;0.70;99.90
16198;DHT22;8206;51.440;6.914;2023-04-03T02:42:44;0.70;99.90
16198;DHT22;8206;51.440;6.914;2023-04-03T02:45:11;0.60;99.90
16198;DHT22;8206;51.440;6.914;2023-04-03T02:47:38;0.60;99.90
16198;DHT22;8206;51.440;6.914;2023-04-03T02:50:05;0.70;99.90
16198;DHT22;8206;51.440;6.914;2023-04-03T02:52:31;0.70;99.90
16198;DHT22;8206;51.440;6.914;2023-04-03T02:54:58;0.70;99.90
16198;DHT22;8206;51.440;6.914;2023-04-03T02:57:26;0.70;99.90
16198;DHT22;8206;51.440;6.914;2023-04-03T02:59:53;0.70;99.90
16198;DHT22;8206;51.440;6.914;2023-04-03T03:02:19;0.70;99.90
16198;DHT22;8206;51.440;6.914;2023-04-03T03:04:46;0.80;99.90
16198;DHT22;8206;51.440;6.914;2023-04-03T03:07:13;0.90;99.90
16198;DHT22;8206;51.440;6.914;2023-04-03T03:09:40;0.80;99.90
16198;DHT22;8206;51.440;6.914;2023-04-03T03:12:06;0.70;99.90
16198;DHT22;8206;51.440;6.914;2023-04-03T03:14:34;0.80;99.90
16198;DHT22;8206;51.440;6.914;2023-04-03T03:17:01;0.70;99.90
16198;DHT22;8206;51.440;6.914;2023-04-03T03:19:27;0.70;99.90
16198;DHT22;8206;51.440;6.914;2023-04-03T03:21:54;0.80;99.90
16198;DHT22;8206;51.440;6.914;2023-04-03T03:24:22;0.80;99.90
16198;DHT22;8206;51.440;6.914;2023-04-03T03:26:48;0.80;99.90
16198;DHT22;8206;51.440;6.914;2023-04-03T03:29:15;0.80;99.90
16198;DHT22;8206;51.440;6.914;2023-04-03T03:31:43;0.80;99.90
16198;DHT22;8206;51.440;6.914;2023-04-03T03:34:10;0.80;99.90
16198;DHT22;8206;51.440;6.914;2023-04-03T03:36:37;0.80;99.90
16198;DHT22;8206;51.440;6.914;2023-04-03T03:39:03;0.70;99.90
16198;DHT22;8206;51.440;6.914;2023-04-03T03:41:30;0.70;99.90
16198;DHT22;8206;51.440;6.914;2023-04-03T03:43:57;0.70;99.90
16198;DHT22;8206;51.440;6.914;2023-04-03T03:46:24;0.60;99.90
16198;DHT22;8206;51.440;6.914;2023-04-03T03:48:52;0.60;99.90
16198;DHT22;8206;51.440;6.914;2023-04-03T03:51:18;0.60;99.90
16198;DHT22;8206;51.440;6.914;2023-04-03T03:53:45;0.60;99.90
16198;DHT22;8206;51.440;6.914;2023-04-03T03:56:12;0.70;99.90
16198;DHT22;8206;51.440;6.914;2023-04-03T03:58:39;0.70;99.90
16198;DHT22;8206;51.440;6.914;2023-04-03T04:01:06;0.70;99.90
16198;DHT22;8206;51.440;6.914;2023-04-03T04:03:33;0.70;99.90
16198;DHT22;8206;51.440;6.914;2023-04-03T04:06:01;0.60;99.90
16198;DHT22;8206;51.440;6.914;2023-04-03T04:08:27;0.60;99.90
16198;DHT22;8206;51.440;6.914;2023-04-03T04:10:54;0.60;99.90
16198;DHT22;8206;51.440;6.914;2023-04-03T04:13:21;0.60;99.90
16198;DHT22;8206;51.440;6.914;2023-04-03T04:15:47;0.60;99.90
16198;DHT22;8206;51.440;6.914;2023-04-03T04:18:14;0.50;99.90
16198;DHT22;8206;51.440;6.914;2023-04-03T04:20:41;0.50;99.90
16198;DHT22;8206;51.440;6.914;2023-04-03T04:23:09;0.50;99.90
16198;DHT22;8206;51.440;6.914;2023-04-03T04:25:35;0.50;99.90
16198;DHT22;8206;51.440;6.914;2023-04-03T04:28:02;0.60;99.90
16198;DHT22;8206;51.440;6.914;2023-04-03T04:30:29;0.60;99.90
16198;DHT22;8206;51.440;6.914;2023-04-03T04:32:55;0.70;99.90
16198;DHT22;8206;51.440;6.914;2023-04-03T04:35:22;0.70;99.90
16198;DHT22;8206;51.440;6.914;2023-04-03T04:37:49;0.60;99.90
16198;DHT22;8206;51.440;6.914;2023-04-03T04:40:17;0.60;99.90
16198;DHT22;8206;51.440;6.914;2023-04-03T04:42:43;0.70;99.90
16198;DHT22;8206;51.440;6.914;2023-04-03T04:45:10;0.60;99.90
16198;DHT22;8206;51.440;6.914;2023-04-03T04:47:37;0.60;99.90
16198;DHT22;8206;51.440;6.914;2023-04-03T04:50:04;0.60;99.90
16198;DHT22;8206;51.440;6.914;2023-04-03T04:52:31;0.60;99.90
16198;DHT22;8206;51.440;6.914;2023-04-03T04:54:58;0.50;99.90
16198;DHT22;8206;51.440;6.914;2023-04-03T04:57:26;0.50;99.90
16198;DHT22;8206;51.440;6.914;2023-04-03T04:59:53;0.50;99.90
16198;DHT22;8206;51.440;6.914;2023-04-03T05:02:20;0.50;99.90
16198;DHT22;8206;51.440;6.914;2023-04-03T05:04:46;0.50;99.90
16198;DHT22;8206;51.440;6.914;2023-04-03T05:07:15;0.50;99.90
16198;DHT22;8206;51.440;6.914;2023-04-03T05:09:42;0.40;99.90
16198;DHT22;8206;51.440;6.914;2023-04-03T05:12:08;0.40;99.90
16198;DHT22;8206;51.440;6.914;2023-04-03T05:14:36;0.50;99.90
16198;DHT22;8206;51.440;6.914;2023-04-03T05:17:03;0.50;99.90
16198;DHT22;8206;51.440;6.914;2023-04-03T05:19:30;0.50;99.90
16198;DHT22;8206;51.440;6.914;2023-04-03T05:21:56;0.50;99.90
16198;DHT22;8206;51.440;6.914;2023-04-03T05:24:23;0.50;99.90
16198;DHT22;8206;51.440;6.914;2023-04-03T05:26:50;0.50;99.90
16198;DHT22;8206;51.440;6.914;2023-04-03T05:29:16;0.60;99.90
16198;DHT22;8206;51.440;6.914;2023-04-03T05:31:44;0.60;99.90
16198;DHT22;8206;51.440;6.914;2023-04-03T05:34:11;0.70;99.90
16198;DHT22;8206;51.440;6.914;2023-04-03T05:36:38;0.70;99.90
16198;DHT22;8206;51.440;6.914;2023-04-03T05:39:05;0.70;99.90
16198;DHT22;8206;51.440;6.914;2023-04-03T05:41:31;0.70;99.90
16198;DHT22;8206;51.440;6.914;2023-04-03T05:43:58;0.80;99.90
16198;DHT22;8206;51.440;6.914;2023-04-03T05:46:25;0.80;99.90
16198;DHT22;8206;51.440;6.914;2023-04-03T05:48:53;0.80;99.90
16198;DHT22;8206;51.440;6.914;2023-04-03T05:51:23;0.90;99.90
16198;DHT22;8206;51.440;6.914;2023-04-03T05:54:01;1.00;99.90
16198;DHT22;8206;51.440;6.914;2023-04-03T05:56:29;1.00;99.90
16198;DHT22;8206;51.440;6.914;2023-04-03T05:58:56;1.00;99.90
16198;DHT22;8206;51.440;6.914;2023-04-03T06:01:22;1.10;99.90
16198;DHT22;8206;51.440;6.914;2023-04-03T06:03:49;1.10;99.90
16198;DHT22;8206;51.440;6.914;2023-04-03T06:06:17;1.20;99.90
16198;DHT22;8206;51.440;6.914;2023-04-03T06:08:44;1.30;99.90
16198;DHT22;8206;51.440;6.914;2023-04-03T06:11:11;1.30;99.90
16198;DHT22;8206;51.440;6.914;2023-04-03T06:13:38;1.30;99.90
16198;DHT22;8206;51.440;6.914;2023-04-03T06:16:05;1.40;99.90
16198;DHT22;8206;51.440;6.914;2023-04-03T06:18:32;1.40;99.90
16198;DHT22;8206;51.440;6.914;2023-04-03T06:20:58;1.40;99.90
16198;DHT22;8206;51.440;6.914;2023-04-03T06:23:27;1.50;99.90
16198;DHT22;8206;51.440;6.914;2023-04-03T06:25:54;1.60;99.90
16198;DHT22;8206;51.440;6.914;2023-04-03T06:28:21;1.60;99.90
16198;DHT22;8206;51.440;6.914;2023-04-03T06:30:47;1.60;99.90
16198;DHT22;8206;51.440;6.914;2023-04-03T06:33:14;1.70;99.90
16198;DHT22;8206;51.440;6.914;2023-04-03T06:35:41;1.70;99.90
16198;DHT22;8206;51.440;6.914;2023-04-03T06:38:07;1.70;99.90
16198;DHT22;8206;51.440;6.914;2023-04-03T06:40:36;1.80;99.90
16198;DHT22;8206;51.440;6.914;2023-04-03T06:43:03;1.80;99.90
16198;DHT22;8206;51.440;6.914;2023-04-03T06:45:30;1.80;99.90
16198;DHT22;8206;51.440;6.914;2023-04-03T06:47:57;1.90;99.90
16198;DHT22;8206;51.440;6.914;2023-04-03T06:50:24;2.00;99.90
16198;DHT22;8206;51.440;6.914;2023-04-03T06:52:51;2.10;99.90
16198;DHT22;8206;51.440;6.914;2023-04-03T06:55:18;2.10;99.90
16198;DHT22;8206;51.440;6.914;2023-04-03T06:57:46;2.20;99.90
16198;DHT22;8206;51.440;6.914;2023-04-03T07:00:14;2.20;99.90
16198;DHT22;8206;51.440;6.914;2023-04-03T07:02:41;2.20;99.90
16198;DHT22;8206;51.440;6.914;2023-04-03T07:05:08;2.30;99.90
16198;DHT22;8206;51.440;6.914;2023-04-03T07:07:35;2.40;99.90
16198;DHT22;8206;51.440;6.914;2023-04-03T07:10:04;2.40;99.90
16198;DHT22;8206;51.440;6.914;2023-04-03T07:12:31;2.50;99.90
16198;DHT22;8206;51.440;6.914;2023-04-03T07:14:59;2.50;99.90
16198;DHT22;8206;51.440;6.914;2023-04-03T07:17:25;2.60;99.90
16198;DHT22;8206;51.440;6.914;2023-04-03T07:19:52;2.70;99.90
16198;DHT22;8206;51.440;6.914;2023-04-03T07:22:19;2.80;99.90
16198;DHT22;8206;51.440;6.914;2023-04-03T07:24:46;2.80;99.90
16198;DHT22;8206;51.440;6.914;2023-04-03T07:27:12;2.80;99.90
16198;DHT22;8206;51.440;6.914;2023-04-03T07:29:39;2.90;99.90
16198;DHT22;8206;51.440;6.914;2023-04-03T07:32:07;3.00;99.90
16198;DHT22;8206;51.440;6.914;2023-04-03T07:34:34;3.10;99.90
16198;DHT22;8206;51.440;6.914;2023-04-03T07:37:01;3.10;99.90
16198;DHT22;8206;51.440;6.914;2023-04-03T07:39:28;3.20;99.90
16198;DHT22;8206;51.440;6.914;2023-04-03T07:41:54;3.40;99.90
16198;DHT22;8206;51.440;6.914;2023-04-03T07:44:21;3.40;99.90
16198;DHT22;8206;51.440;6.914;2023-04-03T07:46:48;3.50;99.90
16198;DHT22;8206;51.440;6.914;2023-04-03T07:49:17;3.40;99.90
16198;DHT22;8206;51.440;6.914;2023-04-03T07:51:44;3.50;99.90
16198;DHT22;8206;51.440;6.914;2023-04-03T07:54:11;3.60;99.90
16198;DHT22;8206;51.440;6.914;2023-04-03T07:56:37;3.70;99.90
16198;DHT22;8206;51.440;6.914;2023-04-03T07:59:04;3.70;99.90
16198;DHT22;8206;51.440;6.914;2023-04-03T08:01:31;3.70;99.90
16198;DHT22;8206;51.440;6.914;2023-04-03T08:03:59;3.90;99.90
16198;DHT22;8206;51.440;6.914;2023-04-03T08:06:27;3.90;99.90
16198;DHT22;8206;51.440;6.914;2023-04-03T08:08:54;4.00;99.90
16198;DHT22;8206;51.440;6.914;2023-04-03T08:11:21;4.10;99.90
16198;DHT22;8206;51.440;6.914;2023-04-03T08:13:49;4.20;99.90
16198;DHT22;8206;51.440;6.914;2023-04-03T08:16:18;4.20;99.90
16198;DHT22;8206;51.440;6.914;2023-04-03T08:18:46;4.20;99.90
16198;DHT22;8206;51.440;6.914;2023-04-03T08:21:13;4.20;99.90
16198;DHT22;8206;51.440;6.914;2023-04-03T08:23:41;4.30;99.90
16198;DHT22;8206;51.440;6.914;2023-04-03T08:26:10;4.30;99.90
16198;DHT22;8206;51.440;6.914;2023-04-03T08:28:38;4.30;99.90
16198;DHT22;8206;51.440;6.914;2023-04-03T08:31:06;4.40;99.90
16198;DHT22;8206;51.440;6.914;2023-04-03T08:33:33;4.60;99.90
16198;DHT22;8206;51.440;6.914;2023-04-03T08:36:02;4.80;99.90
16198;DHT22;8206;51.440;6.914;2023-04-03T08:38:29;4.90;99.90
16198;DHT22;8206;51.440;6.914;2023-04-03T08:41:04;4.90;99.90
16198;DHT22;8206;51.440;6.914;2023-04-03T08:43:38;4.90;99.90
16198;DHT22;8206;51.440;6.914;2023-04-03T08:46:11;4.80;99.90
16198;DHT22;8206;51.440;6.914;2023-04-03T08:48:41;4.80;99.90
16198;DHT22;8206;51.440;6.914;2023-04-03T08:51:13;4.80;99.90
16198;DHT22;8206;51.440;6.914;2023-04-03T08:53:43;4.80;99.90
16198;DHT22;8206;51.440;6.914;2023-04-03T08:56:14;5.00;99.90
16198;DHT22;8206;51.440;6.914;2023-04-03T08:58:47;5.00;99.90
16198;DHT22;8206;51.440;6.914;2023-04-03T09:01:19;5.10;99.90
16198;DHT22;8206;51.440;6.914;2023-04-03T09:03:47;5.10;99.90
16198;DHT22;8206;51.440;6.914;2023-04-03T09:06:15;5.30;99.90
16198;DHT22;8206;51.440;6.914;2023-04-03T09:08:46;5.30;99.90
16198;DHT22;8206;51.440;6.914;2023-04-03T09:11:22;5.40;99.90
16198;DHT22;8206;51.440;6.914;2023-04-03T09:13:54;5.40;99.90
16198;DHT22;8206;51.440;6.914;2023-04-03T09:16:35;5.40;99.90
16198;DHT22;8206;51.440;6.914;2023-04-03T09:19:12;5.50;99.90
16198;DHT22;8206;51.440;6.914;2023-04-03T09:21:43;5.60;99.90
16198;DHT22;8206;51.440;6.914;2023-04-03T09:24:11;5.80;99.90
16198;DHT22;8206;51.440;6.914;2023-04-03T09:26:43;5.80;99.90
16198;DHT22;8206;51.440;6.914;2023-04-03T09:29:16;5.80;99.90
16198;DHT22;8206;51.440;6.914;2023-04-03T09:31:45;5.90;99.90
16198;DHT22;8206;51.440;6.914;2023-04-03T09:34:20;5.80;99.90
16198;DHT22;8206;51.440;6.914;2023-04-03T09:36:48;5.80;99.90
16198;DHT22;8206;51.440;6.914;2023-04-03T09:39:18;5.80;99.90
16198;DHT22;8206;51.440;6.914;2023-04-03T09:42:00;5.80;99.90
16198;DHT22;8206;51.440;6.914;2023-04-03T09:44:29;5.80;99.90
16198;DHT22;8206;51.440;6.914;2023-04-03T09:46:56;5.90;99.90
16198;DHT22;8206;51.440;6.914;2023-04-03T09:49:23;5.90;99.90
16198;DHT22;8206;51.440;6.914;2023-04-03T09:51:50;6.00;99.90
16198;DHT22;8206;51.440;6.914;2023-04-03T09:54:33;6.10;99.90
16198;DHT22;8206;51.440;6.914;2023-04-03T09:57:08;6.30;99.90
16198;DHT22;8206;51.440;6.914;2023-04-03T09:59:45;6.50;99.90
16198;DHT22;8206;51.440;6.914;2023-04-03T10:02:27;6.40;99.90
16198;DHT22;8206;51.440;6.914;2023-04-03T10:04:56;6.40;99.90
16198;DHT22;8206;51.440;6.914;2023-04-03T10:07:31;6.60;99.90
16198;DHT22;8206;51.440;6.914;2023-04-03T10:10:02;6.70;99.90
16198;DHT22;8206;51.440;6.914;2023-04-03T10:12:30;6.80;99.90
16198;DHT22;8206;51.440;6.914;2023-04-03T10:14:58;6.90;99.90
16198;DHT22;8206;51.440;6.914;2023-04-03T10:17:35;7.00;99.90
16198;DHT22;8206;51.440;6.914;2023-04-03T10:20:09;7.10;99.90
16198;DHT22;8206;51.440;6.914;2023-04-03T10:22:47;7.20;99.90
16198;DHT22;8206;51.440;6.914;2023-04-03T10:25:21;7.20;99.90
16198;DHT22;8206;51.440;6.914;2023-04-03T10:27:57;7.20;99.90
16198;DHT22;8206;51.440;6.914;2023-04-03T10:30:34;7.30;99.90
16198;DHT22;8206;51.440;6.914;2023-04-03T10:33:18;7.30;99.90
16198;DHT22;8206;51.440;6.914;2023-04-03T10:35:53;7.40;99.90
16198;DHT22;8206;51.440;6.914;2023-04-03T10:38:32;7.40;99.90
16198;DHT22;8206;51.440;6.914;2023-04-03T10:41:02;7.40;99.90
16198;DHT22;8206;51.440;6.914;2023-04-03T10:43:38;7.40;99.90
16198;DHT22;8206;51.440;6.914;2023-04-03T10:46:09;7.40;99.90
16198;DHT22;8206;51.440;6.914;2023-04-03T10:48:51;7.50;99.90
16198;DHT22;8206;51.440;6.914;2023-04-03T10:51:25;7.60;99.90
16198;DHT22;8206;51.440;6.914;2023-04-03T10:53:57;7.60;99.90
16198;DHT22;8206;51.440;6.914;2023-04-03T10:56:31;7.70;99.90
16198;DHT22;8206;51.440;6.914;2023-04-03T10:59:07;7.70;99.90
16198;DHT22;8206;51.440;6.914;2023-04-03T11:01:39;7.70;99.90
16198;DHT22;8206;51.440;6.914;2023-04-03T11:04:07;7.70;99.90
16198;DHT22;8206;51.440;6.914;2023-04-03T11:06:38;7.50;99.90
16198;DHT22;8206;51.440;6.914;2023-04-03T11:09:13;7.50;99.90
16198;DHT22;8206;51.440;6.914;2023-04-03T11:11:43;7.60;99.90
16198;DHT22;8206;51.440;6.914;2023-04-03T11:14:19;7.70;99.90
16198;DHT22;8206;51.440;6.914;2023-04-03T11:16:52;7.70;1.00
16198;DHT22;8206;51.440;6.914;2023-04-03T11:19:29;7.60;1.00
16198;DHT22;8206;51.440;6.914;2023-04-03T11:22:05;7.50;1.00
16198;DHT22;8206;51.440;6.914;2023-04-03T11:24:37;7.60;1.00
16198;DHT22;8206;51.440;6.914;2023-04-03T11:27:08;7.70;1.00
16198;DHT22;8206;51.440;6.914;2023-04-03T11:29:40;7.70;1.00
16198;DHT22;8206;51.440;6.914;2023-04-03T11:32:13;7.80;1.00
16198;DHT22;8206;51.440;6.914;2023-04-03T11:34:45;7.80;1.00
16198;DHT22;8206;51.440;6.914;2023-04-03T11:37:17;7.80;1.00
16198;DHT22;8206;51.440;6.914;2023-04-03T11:39:53;7.80;1.00
16198;DHT22;8206;51.440;6.914;2023-04-03T11:42:27;7.70;1.00
16198;DHT22;8206;51.440;6.914;2023-04-03T11:45:27;7.70;1.00
16198;DHT22;8206;51.440;6.914;2023-04-03T11:47:58;7.70;1.00
16198;DHT22;8206;51.440;6.914;2023-04-03T11:50:42;7.80;1.00
16198;DHT22;8206;51.440;6.914;2023-04-03T11:53:33;7.80;1.00
16198;DHT22;8206;51.440;6.914;2023-04-03T11:56:03;7.80;1.00
16198;DHT22;8206;51.440;6.914;2023-04-03T11:58:32;7.80;1.00
16198;DHT22;8206;51.440;6.914;2023-04-03T12:01:08;7.90;1.00
16198;DHT22;8206;51.440;6.914;2023-04-03T12:04:07;8.00;1.00
16198;DHT22;8206;51.440;6.914;2023-04-03T12:10:00;8.20;1.00
16198;DHT22;8206;51.440;6.914;2023-04-03T12:12:37;8.10;1.00
16198;DHT22;8206;51.440;6.914;2023-04-03T12:15:25;8.10;1.00
16198;DHT22;8206;51.440;6.914;2023-04-03T12:17:53;8.10;1.00
16198;DHT22;8206;51.440;6.914;2023-04-03T12:20:55;8.20;1.00
16198;DHT22;8206;51.440;6.914;2023-04-03T12:23:28;8.30;1.00
16198;DHT22;8206;51.440;6.914;2023-04-03T12:26:04;8.10;1.00
16198;DHT22;8206;51.440;6.914;2023-04-03T12:28:37;7.90;1.00
16198;DHT22;8206;51.440;6.914;2023-04-03T12:31:08;8.10;1.00
16198;DHT22;8206;51.440;6.914;2023-04-03T12:33:51;8.00;1.00
16198;DHT22;8206;51.440;6.914;2023-04-03T12:36:30;8.00;1.00
16198;DHT22;8206;51.440;6.914;2023-04-03T12:39:14;8.10;1.00
16198;DHT22;8206;51.440;6.914;2023-04-03T12:41:50;8.20;1.00
16198;DHT22;8206;51.440;6.914;2023-04-03T12:44:43;8.10;1.00
16198;DHT22;8206;51.440;6.914;2023-04-03T12:47:24;8.10;1.00
16198;DHT22;8206;51.440;6.914;2023-04-03T12:49:53;8.10;1.00
16198;DHT22;8206;51.440;6.914;2023-04-03T12:52:32;8.10;1.00
16198;DHT22;8206;51.440;6.914;2023-04-03T12:55:00;8.20;1.00
16198;DHT22;8206;51.440;6.914;2023-04-03T12:57:30;8.10;1.00
16198;DHT22;8206;51.440;6.914;2023-04-03T12:59:58;8.00;1.00
16198;DHT22;8206;51.440;6.914;2023-04-03T13:02:26;8.10;1.00
16198;DHT22;8206;51.440;6.914;2023-04-03T13:04:56;8.30;1.00
16198;DHT22;8206;51.440;6.914;2023-04-03T13:07:28;8.40;1.00
16198;DHT22;8206;51.440;6.914;2023-04-03T13:09:59;8.30;1.00
16198;DHT22;8206;51.440;6.914;2023-04-03T13:12:26;8.30;1.00
16198;DHT22;8206;51.440;6.914;2023-04-03T13:14:55;8.20;1.00
16198;DHT22;8206;51.440;6.914;2023-04-03T13:17:22;8.20;1.00
16198;DHT22;8206;51.440;6.914;2023-04-03T13:19:49;8.10;1.00
16198;DHT22;8206;51.440;6.914;2023-04-03T13:22:27;8.30;1.00
16198;DHT22;8206;51.440;6.914;2023-04-03T13:24:58;8.30;1.00
16198;DHT22;8206;51.440;6.914;2023-04-03T13:27:26;8.40;1.00
16198;DHT22;8206;51.440;6.914;2023-04-03T13:29:54;8.40;1.00
16198;DHT22;8206;51.440;6.914;2023-04-03T13:32:25;8.40;1.00
16198;DHT22;8206;51.440;6.914;2023-04-03T13:34:52;8.30;1.00
16198;DHT22;8206;51.440;6.914;2023-04-03T13:37:21;8.50;1.00
16198;DHT22;8206;51.440;6.914;2023-04-03T13:40:02;8.50;1.00
16198;DHT22;8206;51.440;6.914;2023-04-03T13:42:32;8.60;1.00
16198;DHT22;8206;51.440;6.914;2023-04-03T13:45:18;8.60;1.00
16198;DHT22;8206;51.440;6.914;2023-04-03T13:47:47;8.60;1.00
16198;DHT22;8206;51.440;6.914;2023-04-03T13:50:17;8.60;1.00
16198;DHT22;8206;51.440;6.914;2023-04-03T13:52:47;8.50;1.00
16198;DHT22;8206;51.440;6.914;2023-04-03T13:55:23;8.50;1.00
16198;DHT22;8206;51.440;6.914;2023-04-03T13:57:53;8.40;1.00
16198;DHT22;8206;51.440;6.914;2023-04-03T14:00:27;8.50;1.00
16198;DHT22;8206;51.440;6.914;2023-04-03T14:02:54;8.40;1.00
16198;DHT22;8206;51.440;6.914;2023-04-03T14:05:23;8.50;1.00
16198;DHT22;8206;51.440;6.914;2023-04-03T14:07:50;8.50;1.00
16198;DHT22;8206;51.440;6.914;2023-04-03T14:10:17;8.50;1.00
16198;DHT22;8206;51.440;6.914;2023-04-03T14:12:45;8.50;1.00
16198;DHT22;8206;51.440;6.914;2023-04-03T14:15:17;8.50;1.00
16198;DHT22;8206;51.440;6.914;2023-04-03T14:17:44;8.50;1.00
16198;DHT22;8206;51.440;6.914;2023-04-03T14:20:15;8.50;1.00
16198;DHT22;8206;51.440;6.914;2023-04-03T14:22:43;8.40;1.00
16198;DHT22;8206;51.440;6.914;2023-04-03T14:25:10;8.50;1.00
16198;DHT22;8206;51.440;6.914;2023-04-03T14:27:38;8.60;1.00
16198;DHT22;8206;51.440;6.914;2023-04-03T14:30:11;8.70;1.00
16198;DHT22;8206;51.440;6.914;2023-04-03T14:32:39;8.70;1.00
16198;DHT22;8206;51.440;6.914;2023-04-03T14:35:06;8.60;1.00
16198;DHT22;8206;51.440;6.914;2023-04-03T14:37:33;8.60;1.00
16198;DHT22;8206;51.440;6.914;2023-04-03T14:40:01;8.60;1.00
16198;DHT22;8206;51.440;6.914;2023-04-03T14:42:31;8.50;1.00
16198;DHT22;8206;51.440;6.914;2023-04-03T14:44:58;8.40;1.00
16198;DHT22;8206;51.440;6.914;2023-04-03T14:47:29;8.40;1.00
16198;DHT22;8206;51.440;6.914;2023-04-03T14:49:56;8.40;1.00
16198;DHT22;8206;51.440;6.914;2023-04-03T14:52:25;8.50;1.00
16198;DHT22;8206;51.440;6.914;2023-04-03T14:54:53;8.50;1.00
16198;DHT22;8206;51.440;6.914;2023-04-03T14:57:21;8.60;1.00
16198;DHT22;8206;51.440;6.914;2023-04-03T14:59:50;8.60;1.00
16198;DHT22;8206;51.440;6.914;2023-04-03T15:02:27;8.70;1.00
16198;DHT22;8206;51.440;6.914;2023-04-03T15:04:55;8.70;1.00
16198;DHT22;8206;51.440;6.914;2023-04-03T15:07:23;8.70;1.00
16198;DHT22;8206;51.440;6.914;2023-04-03T15:09:50;8.40;1.00
16198;DHT22;8206;51.440;6.914;2023-04-03T15:12:17;8.30;1.00
16198;DHT22;8206;51.440;6.914;2023-04-03T15:14:43;8.30;1.00
16198;DHT22;8206;51.440;6.914;2023-04-03T15:17:14;8.40;1.00
16198;DHT22;8206;51.440;6.914;2023-04-03T15:19:43;8.50;1.00
16198;DHT22;8206;51.440;6.914;2023-04-03T15:22:14;8.60;1.00
16198;DHT22;8206;51.440;6.914;2023-04-03T15:24:41;8.50;1.00
16198;DHT22;8206;51.440;6.914;2023-04-03T15:27:08;8.60;1.00
16198;DHT22;8206;51.440;6.914;2023-04-03T15:29:35;8.60;1.00
16198;DHT22;8206;51.440;6.914;2023-04-03T15:32:02;8.50;1.00
16198;DHT22;8206;51.440;6.914;2023-04-03T15:34:29;8.50;1.00
16198;DHT22;8206;51.440;6.914;2023-04-03T15:36:57;8.30;1.00
16198;DHT22;8206;51.440;6.914;2023-04-03T15:39:25;8.20;1.00
16198;DHT22;8206;51.440;6.914;2023-04-03T15:41:52;8.30;1.00
16198;DHT22;8206;51.440;6.914;2023-04-03T15:44:19;8.40;1.00
16198;DHT22;8206;51.440;6.914;2023-04-03T15:46:46;8.40;1.00
16198;DHT22;8206;51.440;6.914;2023-04-03T15:49:14;8.40;1.00
16198;DHT22;8206;51.440;6.914;2023-04-03T15:51:41;8.30;1.00
16198;DHT22;8206;51.440;6.914;2023-04-03T15:54:09;8.30;1.00
16198;DHT22;8206;51.440;6.914;2023-04-03T15:56:36;8.30;1.00
16198;DHT22;8206;51.440;6.914;2023-04-03T15:59:02;8.30;1.00
16198;DHT22;8206;51.440;6.914;2023-04-03T16:01:30;8.30;1.00
16198;DHT22;8206;51.440;6.914;2023-04-03T16:03:57;8.30;1.00
16198;DHT22;8206;51.440;6.914;2023-04-03T16:06:24;8.30;1.00
16198;DHT22;8206;51.440;6.914;2023-04-03T16:08:54;8.30;1.00
16198;DHT22;8206;51.440;6.914;2023-04-03T16:11:25;8.30;1.00
16198;DHT22;8206;51.440;6.914;2023-04-03T16:13:51;8.30;1.00
16198;DHT22;8206;51.440;6.914;2023-04-03T16:16:18;8.10;1.00
16198;DHT22;8206;51.440;6.914;2023-04-03T16:18:45;8.10;1.00
16198;DHT22;8206;51.440;6.914;2023-04-03T16:21:13;8.10;1.00
16198;DHT22;8206;51.440;6.914;2023-04-03T16:23:40;7.90;1.00
16198;DHT22;8206;51.440;6.914;2023-04-03T16:26:08;7.90;1.00